Time;durP1;ratioP1;P1;durP2;ratioP2;P2;SDS_P1;SDS_P2;PMS_P1;PMS_P2;Temp;Humidity;BMP_temperature;BMP_pressure;BME280_temperature;BME280_humidity;BME280_pressure;Samples;Min_cycle;Max_cycle;Signal;HPM_P1;HPM_P2
2022/05/23 00:01:46;;;;;;;0.10;0.10;;;;;;;;;;5118373;27;20026;-83
2022/05/23 00:04:12;;;;;;;0.10;0.10;;;;;;;;;;5134678;27;20019;-83
2022/05/23 00:06:38;;;;;;;0.10;0.10;;;;;;;;;;5130472;27;20042;-81
2022/05/23 00:09:05;;;;;;;0.10;0.10;;;;;;;;;;5115713;27;20035;-82
2022/05/23 00:11:31;;;;;;;0.10;0.10;;;;;;;;;;5114054;28;20028;-84
2022/05/23 00:13:57;;;;;;;0.10;0.10;;;;;;;;;;5114471;28;20118;-85
2022/05/23 00:16:26;;;;;;;0.10;0.10;;;;;;;;;;5112923;28;20216;-82
2022/05/23 00:18:52;;;;;;;0.10;0.10;;;;;;;;;;5114067;27;20019;-83
2022/05/23 00:21:19;;;;;;;0.10;0.10;;;;;;;;;;5102112;27;20110;-82
2022/05/23 00:23:45;;;;;;;0.10;0.10;;;;;;;;;;5116287;27;20050;-82
2022/05/23 00:26:12;;;;;;;0.10;0.10;;;;;;;;;;5134672;27;20088;-82
2022/05/23 00:28:39;;;;;;;0.10;0.10;;;;;;;;;;5134439;27;20471;-86
2022/05/23 00:31:06;;;;;;;0.10;0.10;;;;;;;;;;5117567;27;20028;-84
2022/05/23 00:36:18;;;;;;;0.10;0.10;;;;;;;;;;5113728;28;20414;-83
2022/05/23 00:38:44;;;;;;;0.10;0.10;;;;;;;;;;5095433;28;20050;-84
2022/05/23 00:44:04;;;;;;;0.10;0.10;;;;;;;;;;5114366;28;20061;-83
2022/05/23 00:46:30;;;;;;;0.10;0.10;;;;;;;;;;5113836;28;20372;-82
2022/05/23 00:49:01;;;;;;;0.10;0.10;;;;;;;;;;5095359;28;20081;-82
2022/05/23 00:51:28;;;;;;;0.10;0.10;;;;;;;;;;5099055;28;20510;-83
2022/05/23 00:53:55;;;;;;;0.10;0.10;;;;;;;;;;5113381;28;20354;-84
2022/05/23 00:56:24;;;;;;;0.10;0.10;;;;;;;;;;5111799;28;20036;-84
2022/05/23 00:58:52;;;;;;;0.10;0.10;;;;;;;;;;5095397;28;20024;-85
2022/05/23 01:01:23;;;;;;;0.10;0.10;;;;;;;;;;5095453;28;20422;-87
2022/05/23 01:03:50;;;;;;;0.10;0.10;;;;;;;;;;5113906;28;20053;-83
2022/05/23 01:06:16;;;;;;;0.10;0.10;;;;;;;;;;5114361;27;20035;-84
2022/05/23 01:08:42;;;;;;;0.10;0.10;;;;;;;;;;5096419;27;20019;-84
2022/05/23 01:11:08;;;;;;;0.10;0.10;;;;;;;;;;5121108;27;20027;-85
2022/05/23 01:13:35;;;;;;;0.10;0.10;;;;;;;;;;5133843;27;20030;-83
2022/05/23 01:16:01;;;;;;;0.10;0.10;;;;;;;;;;5113758;27;20035;-85
2022/05/23 01:18:27;;;;;;;0.10;0.10;;;;;;;;;;5133444;27;20100;-84
2022/05/23 01:20:58;;;;;;;0.10;0.10;;;;;;;;;;5104612;28;20054;-85
2022/05/23 01:23:24;;;;;;;0.10;0.10;;;;;;;;;;5113904;27;20028;-82
2022/05/23 01:25:50;;;;;;;0.10;0.10;;;;;;;;;;5112920;28;20024;-83
2022/05/23 01:28:16;;;;;;;0.10;0.10;;;;;;;;;;5112961;28;20152;-83
2022/05/23 01:30:43;;;;;;;0.10;0.10;;;;;;;;;;5113080;27;20019;-83
2022/05/23 01:33:09;;;;;;;0.10;0.10;;;;;;;;;;5112792;28;20027;-83
2022/05/23 01:35:36;;;;;;;0.00;0.00;;;;;;;;;;5094458;28;20127;-84
2022/05/23 01:38:02;;;;;;;0.03;0.03;;;;;;;;;;5094912;28;20035;-84
2022/05/23 01:40:28;;;;;;;0.10;0.10;;;;;;;;;;5094214;28;20031;-83
2022/05/23 01:42:54;;;;;;;0.10;0.10;;;;;;;;;;5112686;28;20027;-85
2022/05/23 01:45:22;;;;;;;0.10;0.10;;;;;;;;;;5097885;28;20007;-83
2022/05/23 01:47:48;;;;;;;0.10;0.10;;;;;;;;;;5112545;28;20020;-84
2022/05/23 01:50:14;;;;;;;0.10;0.10;;;;;;;;;;5112318;28;20027;-84
2022/05/23 01:52:41;;;;;;;0.10;0.10;;;;;;;;;;5129002;27;20467;-83
2022/05/23 01:55:07;;;;;;;0.10;0.10;;;;;;;;;;5111960;27;20118;-84
2022/05/23 01:57:33;;;;;;;0.10;0.10;;;;;;;;;;5114427;27;20035;-85
2022/05/23 02:02:47;;;;;;;0.10;0.10;;;;;;;;;;5131376;27;20083;-86
2022/05/23 02:05:14;;;;;;;0.10;0.10;;;;;;;;;;5127217;27;20608;-83
2022/05/23 02:07:40;;;;;;;0.10;0.10;;;;;;;;;;5120587;27;20035;-84
2022/05/23 02:10:07;;;;;;;0.10;0.10;;;;;;;;;;5117423;27;20031;-83
2022/05/23 02:12:33;;;;;;;0.05;0.05;;;;;;;;;;5113260;27;20035;-83
2022/05/23 02:15:00;;;;;;;0.10;0.10;;;;;;;;;;5114005;27;20027;-83
2022/05/23 02:17:26;;;;;;;0.10;0.10;;;;;;;;;;5132299;27;20038;-84
2022/05/23 02:19:52;;;;;;;0.10;0.10;;;;;;;;;;5132270;27;20101;-83
2022/05/23 02:22:18;;;;;;;0.10;0.10;;;;;;;;;;5132475;27;20058;-82
2022/05/23 02:24:44;;;;;;;0.05;0.05;;;;;;;;;;5096578;28;20027;-83
2022/05/23 02:27:10;;;;;;;0.10;0.10;;;;;;;;;;5111112;27;20394;-83
2022/05/23 02:29:36;;;;;;;0.10;0.10;;;;;;;;;;5114057;28;20031;-83
2022/05/23 02:32:03;;;;;;;0.10;0.10;;;;;;;;;;5109591;28;20077;-83
2022/05/23 02:34:29;;;;;;;0.10;0.10;;;;;;;;;;5111155;28;20106;-83
2022/05/23 02:36:55;;;;;;;0.10;0.10;;;;;;;;;;5093453;28;20130;-83
2022/05/23 02:39:21;;;;;;;0.10;0.10;;;;;;;;;;5110801;28;20047;-83
2022/05/23 02:41:47;;;;;;;0.10;0.10;;;;;;;;;;5111513;28;20081;-83
2022/05/23 02:44:13;;;;;;;0.10;0.10;;;;;;;;;;5093223;28;20106;-82
2022/05/23 02:46:39;;;;;;;0.10;0.10;;;;;;;;;;5111831;28;20023;-83
2022/05/23 02:49:06;;;;;;;0.10;0.10;;;;;;;;;;5126001;28;20023;-83
2022/05/23 02:51:32;;;;;;;0.10;0.10;;;;;;;;;;5130865;28;20035;-85
2022/05/23 02:53:58;;;;;;;0.10;0.10;;;;;;;;;;5132338;28;20036;-83
2022/05/23 02:56:25;;;;;;;0.10;0.10;;;;;;;;;;5131111;28;20512;-84
2022/05/23 02:58:51;;;;;;;0.10;0.10;;;;;;;;;;5131550;28;20478;-84
2022/05/23 03:01:17;;;;;;;0.10;0.10;;;;;;;;;;5131658;28;20474;-83
2022/05/23 03:03:43;;;;;;;0.10;0.10;;;;;;;;;;5112937;28;20023;-84
2022/05/23 03:06:09;;;;;;;0.10;0.10;;;;;;;;;;5113464;28;20027;-83
2022/05/23 03:08:36;;;;;;;0.10;0.10;;;;;;;;;;5130117;28;20020;-82
2022/05/23 03:11:02;;;;;;;0.10;0.10;;;;;;;;;;5131798;28;20035;-83
2022/05/23 03:13:28;;;;;;;0.10;0.10;;;;;;;;;;5131972;28;20031;-82
2022/05/23 03:15:54;;;;;;;0.10;0.10;;;;;;;;;;5108779;28;20034;-84
2022/05/23 03:18:21;;;;;;;0.10;0.10;;;;;;;;;;5093090;28;20027;-84
2022/05/23 03:20:47;;;;;;;0.10;0.10;;;;;;;;;;5093201;28;20024;-84
2022/05/23 03:26:58;;;;;;;0.10;0.10;;;;;;;;;;5111690;28;20034;-83
2022/05/23 03:29:00;;;;;;;0.10;0.10;;;;;;;;;;5111417;28;20023;-85
2022/05/23 03:31:27;;;;;;;0.10;0.10;;;;;;;;;;5092706;28;20486;-85
2022/05/23 03:33:53;;;;;;;0.10;0.10;;;;;;;;;;5093124;28;20024;-84
2022/05/23 03:36:19;;;;;;;0.10;0.10;;;;;;;;;;5111426;28;20082;-85
2022/05/23 03:38:45;;;;;;;0.10;0.10;;;;;;;;;;5093197;28;20115;-85
2022/05/23 03:41:11;;;;;;;0.10;0.10;;;;;;;;;;5093089;28;20028;-86
2022/05/23 03:43:37;;;;;;;0.10;0.10;;;;;;;;;;5093484;28;20032;-86
2022/05/23 03:46:08;;;;;;;0.10;0.10;;;;;;;;;;5111059;28;20027;-85
2022/05/23 03:48:34;;;;;;;0.10;0.10;;;;;;;;;;5092861;28;20471;-84
2022/05/23 03:51:00;;;;;;;0.10;0.10;;;;;;;;;;5093604;28;20028;-85
2022/05/23 03:53:26;;;;;;;0.10;0.10;;;;;;;;;;5097441;28;20111;-85
2022/05/23 03:55:52;;;;;;;0.10;0.10;;;;;;;;;;5116408;27;20068;-84
2022/05/23 03:58:19;;;;;;;0.08;0.08;;;;;;;;;;5116528;27;20063;-84
2022/05/23 04:00:49;;;;;;;0.10;0.10;;;;;;;;;;5104345;28;20023;-83
2022/05/23 04:03:15;;;;;;;0.10;0.10;;;;;;;;;;5114510;28;20024;-86
2022/05/23 04:05:41;;;;;;;0.10;0.10;;;;;;;;;;5096497;28;20038;-82
2022/05/23 04:08:08;;;;;;;0.10;0.10;;;;;;;;;;5116483;27;20016;-84
2022/05/23 04:10:34;;;;;;;0.10;0.10;;;;;;;;;;5134857;27;20027;-84
2022/05/23 04:13:02;;;;;;;0.10;0.10;;;;;;;;;;5134822;27;20038;-83
2022/05/23 04:15:28;;;;;;;0.10;0.10;;;;;;;;;;5115288;27;20494;-83
2022/05/23 04:17:54;;;;;;;0.10;0.10;;;;;;;;;;5114251;28;20031;-84
2022/05/23 04:20:20;;;;;;;0.10;0.10;;;;;;;;;;5098737;27;20058;-83
2022/05/23 04:22:47;;;;;;;0.10;0.10;;;;;;;;;;5135052;27;20023;-83
2022/05/23 04:25:13;;;;;;;0.10;0.10;;;;;;;;;;5116602;27;20061;-83
2022/05/23 04:27:39;;;;;;;0.10;0.10;;;;;;;;;;5131782;27;20127;-83
2022/05/23 04:30:05;;;;;;;0.03;0.03;;;;;;;;;;5095722;28;20550;-84
2022/05/23 04:35:16;;;;;;;0.10;0.10;;;;;;;;;;5127821;27;20046;-84
2022/05/23 04:37:44;;;;;;;0.10;0.10;;;;;;;;;;5134428;27;20038;-84
2022/05/23 04:40:11;;;;;;;0.10;0.10;;;;;;;;;;5134462;27;20522;-82
2022/05/23 04:42:37;;;;;;;0.10;0.10;;;;;;;;;;5113894;27;20110;-83
2022/05/23 04:45:03;;;;;;;0.10;0.10;;;;;;;;;;5134220;27;20173;-82
2022/05/23 04:50:14;;;;;;;0.10;0.10;;;;;;;;;;5114899;27;20046;-83
2022/05/23 04:52:40;;;;;;;0.10;0.10;;;;;;;;;;5113793;27;20023;-84
2022/05/23 04:55:08;;;;;;;0.10;0.10;;;;;;;;;;5122236;27;20044;-86
2022/05/23 04:57:34;;;;;;;0.10;0.10;;;;;;;;;;5117593;27;20027;-82
2022/05/23 05:00:00;;;;;;;0.10;0.10;;;;;;;;;;5114172;27;20030;-83
2022/05/23 05:02:27;;;;;;;0.10;0.10;;;;;;;;;;5112689;28;20037;-84
2022/05/23 05:04:53;;;;;;;0.10;0.10;;;;;;;;;;5113402;27;20024;-83
2022/05/23 05:07:19;;;;;;;0.10;0.10;;;;;;;;;;5113824;27;20032;-80
2022/05/23 05:09:45;;;;;;;0.10;0.10;;;;;;;;;;5125974;27;20602;-82
2022/05/23 05:12:11;;;;;;;0.10;0.10;;;;;;;;;;5113652;28;20030;-84
2022/05/23 05:14:37;;;;;;;0.10;0.10;;;;;;;;;;5113270;28;20032;-83
2022/05/23 05:17:03;;;;;;;0.10;0.10;;;;;;;;;;5112987;27;20027;-84
2022/05/23 05:19:29;;;;;;;0.10;0.10;;;;;;;;;;5095360;28;20398;-83
2022/05/23 05:21:55;;;;;;;0.10;0.10;;;;;;;;;;5113732;27;20031;-83
2022/05/23 05:24:21;;;;;;;0.10;0.10;;;;;;;;;;5120783;27;20085;-83
2022/05/23 05:26:47;;;;;;;0.10;0.10;;;;;;;;;;5111290;28;20028;-81
2022/05/23 05:29:13;;;;;;;0.10;0.10;;;;;;;;;;5097740;28;20364;-81
2022/05/23 05:31:39;;;;;;;0.10;0.10;;;;;;;;;;5113097;28;20038;-82
2022/05/23 05:34:08;;;;;;;0.10;0.10;;;;;;;;;;5112653;28;20035;-80
2022/05/23 05:36:38;;;;;;;0.10;0.10;;;;;;;;;;5112239;28;20074;-81
2022/05/23 05:39:05;;;;;;;0.10;0.10;;;;;;;;;;5112316;27;20105;-81
2022/05/23 05:41:33;;;;;;;0.10;0.10;;;;;;;;;;5094043;28;20236;-80
2022/05/23 05:44:07;;;;;;;0.15;0.15;;;;;;;;;;5094367;28;20162;-81
2022/05/23 05:46:35;;;;;;;0.10;0.10;;;;;;;;;;5113119;27;20394;-81
2022/05/23 05:49:04;;;;;;;0.10;0.10;;;;;;;;;;5112291;27;20028;-80
2022/05/23 05:51:30;;;;;;;0.10;0.10;;;;;;;;;;5117350;27;20023;-80
2022/05/23 05:53:56;;;;;;;0.10;0.10;;;;;;;;;;5127049;27;20061;-80
2022/05/23 05:56:22;;;;;;;0.10;0.10;;;;;;;;;;5115555;27;20023;-78
2022/05/23 05:58:48;;;;;;;0.10;0.10;;;;;;;;;;5126934;27;20394;-78
2022/05/23 06:01:14;;;;;;;0.10;0.10;;;;;;;;;;5098257;28;20540;-80
2022/05/23 06:03:40;;;;;;;0.10;0.10;;;;;;;;;;5112326;28;20023;-79
2022/05/23 06:11:36;;;;;;;0.10;0.10;;;;;;;;;;5111710;28;20414;-80
2022/05/23 06:14:03;;;;;;;0.10;0.10;;;;;;;;;;5110977;27;20035;-80
2022/05/23 06:16:33;;;;;;;0.10;0.10;;;;;;;;;;5112484;27;20040;-79
2022/05/23 06:19:00;;;;;;;0.10;0.10;;;;;;;;;;5109860;28;20070;-79
2022/05/23 06:21:26;;;;;;;0.10;0.10;;;;;;;;;;5111653;28;20111;-81
2022/05/23 06:23:53;;;;;;;0.10;0.10;;;;;;;;;;5111844;28;20042;-79
2022/05/23 06:26:21;;;;;;;0.13;0.13;;;;;;;;;;5111569;28;20023;-78
2022/05/23 06:28:47;;;;;;;0.10;0.10;;;;;;;;;;5111654;28;20023;-79
2022/05/23 06:31:15;;;;;;;0.10;0.10;;;;;;;;;;5111492;28;20471;-79
2022/05/23 06:33:41;;;;;;;0.10;0.10;;;;;;;;;;5111997;28;20016;-79
2022/05/23 06:36:08;;;;;;;0.10;0.10;;;;;;;;;;5111897;28;20016;-79
2022/05/23 06:38:35;;;;;;;0.10;0.10;;;;;;;;;;5111480;28;20030;-79
2022/05/23 06:41:02;;;;;;;0.10;0.10;;;;;;;;;;5106483;28;20031;-82
2022/05/23 06:43:29;;;;;;;0.10;0.10;;;;;;;;;;5128991;28;20076;-82
2022/05/23 06:45:55;;;;;;;0.10;0.10;;;;;;;;;;5109260;28;20047;-80
2022/05/23 06:48:22;;;;;;;0.10;0.10;;;;;;;;;;5093497;28;20080;-80
2022/05/23 06:50:50;;;;;;;0.10;0.10;;;;;;;;;;5111310;28;20015;-79
2022/05/23 06:53:16;;;;;;;0.10;0.10;;;;;;;;;;5111027;28;20034;-79
2022/05/23 06:55:42;;;;;;;0.10;0.10;;;;;;;;;;5111405;28;20038;-79
2022/05/23 06:58:10;;;;;;;0.08;0.08;;;;;;;;;;5131029;28;20035;-82
2022/05/23 07:00:36;;;;;;;0.10;0.10;;;;;;;;;;5131401;28;20015;-82
2022/05/23 07:03:02;;;;;;;0.10;0.10;;;;;;;;;;5113690;28;20031;-82
2022/05/23 07:13:42;;;;;;;0.10;0.10;;;;;;;;;;5132055;28;20085;-79
2022/05/23 07:16:09;;;;;;;0.10;0.10;;;;;;;;;;5131721;28;20024;-81
2022/05/23 07:18:35;;;;;;;0.10;0.10;;;;;;;;;;5131375;28;20092;-81
2022/05/23 07:21:03;;;;;;;0.10;0.10;;;;;;;;;;5131868;28;20102;-81
2022/05/23 07:23:30;;;;;;;0.10;0.10;;;;;;;;;;5131534;28;20098;-80
2022/05/23 07:25:56;;;;;;;0.10;0.10;;;;;;;;;;5115306;27;20035;-80
2022/05/23 07:28:22;;;;;;;0.10;0.10;;;;;;;;;;5135462;27;20022;-81
2022/05/23 07:30:48;;;;;;;0.10;0.10;;;;;;;;;;5135600;27;20134;-80
2022/05/23 07:33:15;;;;;;;0.10;0.10;;;;;;;;;;5135218;27;20567;-80
2022/05/23 07:35:42;;;;;;;0.10;0.10;;;;;;;;;;5135795;27;20122;-81
2022/05/23 07:38:09;;;;;;;0.10;0.10;;;;;;;;;;5117512;27;20031;-82
2022/05/23 07:40:35;;;;;;;0.10;0.10;;;;;;;;;;5116953;27;20443;-80
2022/05/23 07:43:01;;;;;;;0.10;0.10;;;;;;;;;;5135404;27;20390;-80
2022/05/23 07:45:27;;;;;;;0.10;0.10;;;;;;;;;;5135303;27;20026;-80
2022/05/23 07:47:53;;;;;;;0.10;0.10;;;;;;;;;;5135276;27;20027;-81
2022/05/23 07:50:19;;;;;;;0.10;0.10;;;;;;;;;;5115275;27;20034;-82
2022/05/23 08:00:31;;;;;;;0.10;0.10;;;;;;;;;;5113451;28;20490;-79
2022/05/23 08:01:20;;;;;;;0.10;0.10;;;;;;;;;;5041257;28;20098;-79
2022/05/23 08:03:46;;;;;;;0.10;0.10;;;;;;;;;;5079957;28;20040;-79
2022/05/23 08:06:12;;;;;;;0.10;0.10;;;;;;;;;;5112779;28;20398;-78
2022/05/23 08:08:38;;;;;;;0.10;0.10;;;;;;;;;;5113128;28;20043;-79
2022/05/23 08:11:08;;;;;;;0.10;0.10;;;;;;;;;;5112838;28;20155;-78
2022/05/23 08:13:35;;;;;;;0.10;0.10;;;;;;;;;;5112639;28;20093;-79
2022/05/23 08:16:01;;;;;;;0.10;0.10;;;;;;;;;;5113268;28;20088;-79
2022/05/23 08:18:27;;;;;;;0.10;0.10;;;;;;;;;;5112899;28;20038;-80
2022/05/23 08:20:53;;;;;;;0.10;0.10;;;;;;;;;;5115357;27;20755;-80
2022/05/23 08:23:19;;;;;;;0.10;0.10;;;;;;;;;;5116953;27;20054;-79
2022/05/23 08:25:46;;;;;;;0.10;0.10;;;;;;;;;;5116169;27;20015;-81
2022/05/23 08:28:12;;;;;;;0.10;0.10;;;;;;;;;;5095927;28;20394;-80
2022/05/23 08:30:38;;;;;;;0.10;0.10;;;;;;;;;;5112250;28;20023;-80
2022/05/23 08:33:04;;;;;;;0.10;0.10;;;;;;;;;;5109848;28;20031;-79
2022/05/23 08:35:30;;;;;;;0.10;0.10;;;;;;;;;;5112863;28;20390;-80
2022/05/23 08:37:58;;;;;;;0.17;0.17;;;;;;;;;;5112133;28;20035;-82
2022/05/23 08:40:51;;;;;;;0.10;0.10;;;;;;;;;;5095207;28;20072;-80
2022/05/23 08:43:23;;;;;;;0.10;0.10;;;;;;;;;;5074277;28;20047;-81
2022/05/23 08:45:52;;;;;;;0.10;0.10;;;;;;;;;;5113621;28;20023;-81
2022/05/23 08:48:29;;;;;;;0.10;0.10;;;;;;;;;;5113240;28;20052;-80
2022/05/23 08:51:14;;;;;;;0.10;0.10;;;;;;;;;;5094965;28;20023;-80
2022/05/23 08:53:56;;;;;;;0.10;0.10;;;;;;;;;;5110637;27;20015;-80
2022/05/23 08:56:34;;;;;;;0.10;0.10;;;;;;;;;;5129737;27;20041;-81
2022/05/23 08:59:01;;;;;;;0.10;0.10;;;;;;;;;;5101001;27;20032;-79
2022/05/23 09:01:44;;;;;;;0.10;0.10;;;;;;;;;;5122139;27;20445;-80
2022/05/23 09:04:10;;;;;;;0.10;0.10;;;;;;;;;;5129819;27;20546;-79
2022/05/23 09:06:40;;;;;;;0.10;0.10;;;;;;;;;;5115929;27;20031;-79
2022/05/23 09:09:08;;;;;;;0.10;0.10;;;;;;;;;;5125074;27;20038;-81
2022/05/23 09:11:36;;;;;;;0.10;0.10;;;;;;;;;;5105791;27;20154;-80
2022/05/23 09:14:04;;;;;;;0.10;0.10;;;;;;;;;;5098767;28;20031;-79
2022/05/23 09:16:40;;;;;;;0.00;0.00;;;;;;;;;;5096485;27;20027;-80
2022/05/23 09:19:24;;;;;;;0.10;0.10;;;;;;;;;;5133041;27;20080;-79
2022/05/23 09:24:39;;;;;;;0.10;0.10;;;;;;;;;;5129418;27;20084;-78
2022/05/23 09:27:25;;;;;;;0.10;0.10;;;;;;;;;;5119781;27;20486;-80
2022/05/23 09:29:53;;;;;;;0.08;0.08;;;;;;;;;;5117272;27;20031;-80
2022/05/23 09:32:22;;;;;;;0.10;0.10;;;;;;;;;;5128814;27;20042;-83
2022/05/23 09:35:00;;;;;;;0.10;0.10;;;;;;;;;;5099220;27;20030;-82
2022/05/23 09:37:36;;;;;;;0.10;0.10;;;;;;;;;;5103530;28;20040;-84
2022/05/23 09:40:02;;;;;;;0.10;0.10;;;;;;;;;;5109825;27;20395;-81
2022/05/23 09:48:27;;;;;;;0.10;0.10;;;;;;;;;;5090507;28;20036;-81
2022/05/23 09:50:55;;;;;;;0.10;0.10;;;;;;;;;;5092914;28;20070;-80
2022/05/23 09:53:24;;;;;;;0.10;0.10;;;;;;;;;;5118209;27;20031;-78
2022/05/23 09:55:51;;;;;;;0.10;0.10;;;;;;;;;;5118310;27;20055;-80
2022/05/23 09:58:25;;;;;;;0.10;0.10;;;;;;;;;;5128299;27;20080;-80
2022/05/23 10:01:01;;;;;;;0.20;0.20;;;;;;;;;;5117572;27;20011;-80
2022/05/23 10:03:29;;;;;;;0.08;0.08;;;;;;;;;;5121319;27;20027;-81
2022/05/23 10:06:21;;;;;;;0.10;0.10;;;;;;;;;;5107921;27;20027;-81
2022/05/23 10:08:48;;;;;;;0.10;0.10;;;;;;;;;;5081279;27;20031;-82
2022/05/23 10:11:34;;;;;;;0.10;0.10;;;;;;;;;;5104269;28;20037;-81
2022/05/23 10:14:05;;;;;;;0.10;0.10;;;;;;;;;;5098505;28;20122;-80
2022/05/23 10:16:45;;;;;;;0.10;0.10;;;;;;;;;;5109827;28;20059;-82
2022/05/23 10:19:23;;;;;;;0.10;0.10;;;;;;;;;;5093384;28;20422;-83
2022/05/23 10:22:04;;;;;;;0.10;0.10;;;;;;;;;;5125311;27;20019;-82
2022/05/23 10:24:31;;;;;;;0.10;0.10;;;;;;;;;;5093829;28;20085;-82
2022/05/23 10:27:00;;;;;;;0.10;0.10;;;;;;;;;;5093242;27;20077;-82
2022/05/23 10:29:30;;;;;;;0.10;0.10;;;;;;;;;;5115991;27;20479;-82
2022/05/23 10:32:07;;;;;;;0.10;0.10;;;;;;;;;;5126915;27;20050;-80
2022/05/23 10:34:39;;;;;;;0.10;0.10;;;;;;;;;;5112482;27;20027;-83
2022/05/23 10:37:07;;;;;;;0.10;0.10;;;;;;;;;;5093622;28;20460;-84
2022/05/23 10:42:39;;;;;;;0.00;0.00;;;;;;;;;;5110524;28;20027;-81
2022/05/23 10:45:14;;;;;;;0.08;0.08;;;;;;;;;;5083892;28;20118;-83
2022/05/23 10:47:43;;;;;;;0.10;0.10;;;;;;;;;;5103506;28;20042;-82
2022/05/23 10:50:26;;;;;;;0.10;0.10;;;;;;;;;;5126499;28;20031;-84
2022/05/23 10:53:04;;;;;;;0.10;0.10;;;;;;;;;;5098818;28;20022;-84
2022/05/23 10:55:30;;;;;;;0.10;0.10;;;;;;;;;;5122110;28;20402;-81
2022/05/23 10:58:13;;;;;;;0.10;0.10;;;;;;;;;;5105255;28;20039;-82
2022/05/23 11:00:49;;;;;;;0.10;0.10;;;;;;;;;;5116440;27;20457;-82
2022/05/23 11:03:15;;;;;;;;;;;;;;;;;;5110559;28;20047;-81
2022/05/23 11:05:41;;;;;;;;;;;;;;;;;;5126565;27;19904;-82
2022/05/23 11:08:14;;;;;;;0.10;0.10;;;;;;;;;;5121926;27;19910;-83
2022/05/23 11:10:43;;;;;;;0.00;0.00;;;;;;;;;;5121941;27;20367;-82
2022/05/23 11:13:18;;;;;;;0.10;0.10;;;;;;;;;;5129624;27;20098;-82
2022/05/23 11:16:20;;;;;;;0.10;0.10;;;;;;;;;;5116746;28;20028;-82
2022/05/23 11:18:58;;;;;;;0.10;0.10;;;;;;;;;;5014100;28;20041;-86
2022/05/23 11:21:28;;;;;;;0.10;0.10;;;;;;;;;;5094112;27;20046;-86
2022/05/23 11:23:58;;;;;;;0.10;0.10;;;;;;;;;;5136769;27;20015;-85
2022/05/23 11:26:28;;;;;;;0.10;0.10;;;;;;;;;;5136976;27;20018;-86
2022/05/23 11:34:48;;;;;;;0.10;0.10;;;;;;;;;;5134142;27;20038;-82
2022/05/23 11:39:57;;;;;;;0.10;0.10;;;;;;;;;;5126896;27;20482;-83
2022/05/23 11:42:42;;;;;;;0.10;0.10;;;;;;;;;;5118896;27;20026;-86
2022/05/23 11:47:54;;;;;;;0.10;0.10;;;;;;;;;;5124369;27;20441;-83
2022/05/23 11:50:25;;;;;;;0.10;0.10;;;;;;;;;;5113060;27;20019;-83
2022/05/23 11:53:10;;;;;;;0.10;0.10;;;;;;;;;;5099485;27;20019;-82
2022/05/23 11:55:51;;;;;;;0.10;0.10;;;;;;;;;;5105958;28;20402;-80
2022/05/23 11:58:17;;;;;;;0.10;0.10;;;;;;;;;;5129670;27;20131;-79
2022/05/23 12:01:00;;;;;;;0.10;0.10;;;;;;;;;;5113754;27;20044;-79
2022/05/23 12:03:26;;;;;;;0.10;0.10;;;;;;;;;;5111821;28;20059;-80
2022/05/23 12:06:15;;;;;;;0.10;0.10;;;;;;;;;;5112229;28;20062;-80
2022/05/23 12:08:59;;;;;;;0.10;0.10;;;;;;;;;;5101066;27;20106;-79
2022/05/23 12:11:26;;;;;;;0.10;0.10;;;;;;;;;;5108800;28;20054;-79
2022/05/23 12:13:57;;;;;;;0.10;0.10;;;;;;;;;;5111998;28;20031;-79
2022/05/23 12:16:36;;;;;;;0.20;0.20;;;;;;;;;;5112205;27;20049;-79
2022/05/23 12:19:24;;;;;;;0.10;0.10;;;;;;;;;;5113881;27;20089;-79
2022/05/23 12:21:50;;;;;;;0.10;0.10;;;;;;;;;;5110301;28;20024;-80
2022/05/23 12:24:32;;;;;;;0.10;0.10;;;;;;;;;;5112013;27;20445;-83
2022/05/23 12:27:01;;;;;;;0.10;0.10;;;;;;;;;;5112132;27;20055;-79
2022/05/23 12:29:32;;;;;;;0.10;0.10;;;;;;;;;;5112171;27;20027;-80
2022/05/23 12:32:16;;;;;;;0.10;0.10;;;;;;;;;;5110199;27;20143;-79
2022/05/23 12:34:44;;;;;;;0.10;0.10;;;;;;;;;;5111430;28;20069;-80
2022/05/23 12:37:30;;;;;;;0.10;0.10;;;;;;;;;;5093894;28;20035;-80
2022/05/23 12:40:19;;;;;;;0.10;0.10;;;;;;;;;;5109521;28;20034;-80
2022/05/23 12:42:51;;;;;;;0.10;0.10;;;;;;;;;;5129706;27;20106;-81
2022/05/23 12:45:23;;;;;;;0.10;0.10;;;;;;;;;;5119713;27;20023;-80
2022/05/23 12:47:58;;;;;;;0.10;0.10;;;;;;;;;;5103422;28;20495;-81
2022/05/23 12:50:32;;;;;;;0.10;0.10;;;;;;;;;;5120980;27;20111;-80
2022/05/23 12:52:58;;;;;;;0.10;0.10;;;;;;;;;;5110484;27;20022;-79
2022/05/23 12:55:33;;;;;;;0.10;0.10;;;;;;;;;;5124949;27;20023;-79
2022/05/23 12:58:08;;;;;;;0.10;0.10;;;;;;;;;;5107631;27;20091;-79
2022/05/23 13:00:37;;;;;;;0.10;0.10;;;;;;;;;;5097747;28;20028;-79
2022/05/23 13:03:09;;;;;;;0.10;0.10;;;;;;;;;;5127782;27;20058;-80
2022/05/23 13:05:41;;;;;;;0.10;0.10;;;;;;;;;;5122094;27;20016;-81
2022/05/23 13:08:12;;;;;;;0.10;0.10;;;;;;;;;;5119090;27;20035;-83
2022/05/23 13:10:41;;;;;;;0.10;0.10;;;;;;;;;;5111628;27;20016;-83
2022/05/23 13:13:20;;;;;;;0.10;0.10;;;;;;;;;;5100452;27;20083;-82
2022/05/23 13:15:46;;;;;;;0.10;0.10;;;;;;;;;;5103281;28;20059;-83
2022/05/23 13:23:52;;;;;;;0.10;0.10;;;;;;;;;;5115404;27;20073;-79
2022/05/23 13:26:19;;;;;;;0.10;0.10;;;;;;;;;;5127946;27;20483;-80
2022/05/23 13:28:48;;;;;;;0.10;0.10;;;;;;;;;;5097447;27;20028;-81
2022/05/23 13:31:25;;;;;;;0.10;0.10;;;;;;;;;;5107099;28;20526;-81
2022/05/23 13:33:51;;;;;;;0.10;0.10;;;;;;;;;;5105720;27;20027;-82
2022/05/23 13:36:17;;;;;;;0.10;0.10;;;;;;;;;;5097035;28;20027;-81
2022/05/23 13:38:57;;;;;;;0.10;0.10;;;;;;;;;;5110538;28;20042;-83
2022/05/23 13:41:27;;;;;;;0.10;0.10;;;;;;;;;;5120656;27;20024;-84
2022/05/23 13:43:53;;;;;;;0.10;0.10;;;;;;;;;;5114647;27;20027;-85
2022/05/23 13:46:23;;;;;;;0.00;0.00;;;;;;;;;;5114443;27;20019;-84
2022/05/23 13:48:52;;;;;;;0.10;0.10;;;;;;;;;;5126574;27;20521;-86
2022/05/23 13:51:23;;;;;;;0.10;0.10;;;;;;;;;;5125463;27;20020;-84
2022/05/23 13:53:58;;;;;;;0.10;0.10;;;;;;;;;;5094524;28;20036;-84
2022/05/23 13:56:26;;;;;;;0.10;0.10;;;;;;;;;;5110535;27;20031;-86
2022/05/23 13:58:56;;;;;;;0.10;0.10;;;;;;;;;;5080388;27;20034;-81
2022/05/23 14:01:26;;;;;;;0.10;0.10;;;;;;;;;;5123874;27;20015;-83
2022/05/23 14:04:01;;;;;;;0.10;0.10;;;;;;;;;;5123822;27;20019;-82
2022/05/23 14:06:33;;;;;;;0.10;0.10;;;;;;;;;;5114743;27;20060;-82
2022/05/23 14:09:01;;;;;;;0.10;0.10;;;;;;;;;;5108923;28;20495;-83
2022/05/23 14:11:36;;;;;;;0.10;0.10;;;;;;;;;;5101560;27;20016;-82
2022/05/23 14:14:14;;;;;;;0.10;0.10;;;;;;;;;;5099873;28;20131;-81
2022/05/23 14:16:40;;;;;;;0.10;0.10;;;;;;;;;;5128589;27;20390;-82
2022/05/23 14:19:19;;;;;;;0.10;0.10;;;;;;;;;;5098707;27;20030;-81
2022/05/23 14:21:45;;;;;;;0.10;0.10;;;;;;;;;;5120427;27;20030;-81
2022/05/23 14:24:40;;;;;;;0.10;0.10;;;;;;;;;;5111595;28;20027;-83
2022/05/23 14:27:28;;;;;;;0.10;0.10;;;;;;;;;;5085156;27;20054;-83
2022/05/23 14:30:12;;;;;;;0.10;0.10;;;;;;;;;;5119910;27;20020;-83
2022/05/23 14:32:38;;;;;;;0.10;0.10;;;;;;;;;;5109993;28;20016;-83
2022/05/23 14:35:12;;;;;;;0.10;0.10;;;;;;;;;;5115793;28;20027;-83
2022/05/23 14:37:40;;;;;;;0.10;0.10;;;;;;;;;;5121529;27;20111;-82
2022/05/23 14:40:06;;;;;;;0.10;0.10;;;;;;;;;;5125255;28;20026;-82
2022/05/23 14:42:36;;;;;;;0.10;0.10;;;;;;;;;;5114164;28;20066;-82
2022/05/23 14:45:05;;;;;;;0.10;0.10;;;;;;;;;;5126223;28;20402;-82
2022/05/23 14:47:31;;;;;;;0.10;0.10;;;;;;;;;;5101523;28;20034;-82
2022/05/23 14:49:57;;;;;;;0.10;0.10;;;;;;;;;;5100303;28;20019;-82
2022/05/23 14:52:25;;;;;;;0.10;0.10;;;;;;;;;;5127476;28;20034;-83
2022/05/23 15:00:38;;;;;;;;;;;;;;;;;;5115498;28;20026;-82
2022/05/23 15:03:23;;;;;;;0.10;0.10;;;;;;;;;;5090637;28;19910;-83
2022/05/23 15:05:50;;;;;;;0.10;0.10;;;;;;;;;;5091019;28;20114;-83
2022/05/23 15:08:17;;;;;;;0.10;0.10;;;;;;;;;;5091272;28;20280;-83
2022/05/23 15:10:43;;;;;;;0.10;0.10;;;;;;;;;;5091223;28;20116;-81
2022/05/23 15:13:09;;;;;;;0.10;0.10;;;;;;;;;;5109674;28;20023;-81
2022/05/23 15:15:37;;;;;;;0.10;0.10;;;;;;;;;;5090938;28;20023;-83
2022/05/23 15:18:03;;;;;;;0.10;0.10;;;;;;;;;;5092851;28;20437;-82
2022/05/23 15:20:29;;;;;;;0.10;0.10;;;;;;;;;;5109705;28;20462;-82
2022/05/23 15:22:55;;;;;;;0.10;0.10;;;;;;;;;;5091799;28;20568;-81
2022/05/23 15:25:21;;;;;;;0.10;0.10;;;;;;;;;;5109133;28;20023;-80
2022/05/23 15:27:48;;;;;;;0.10;0.10;;;;;;;;;;5091023;28;20023;-83
2022/05/23 15:30:15;;;;;;;0.10;0.10;;;;;;;;;;5109255;28;20088;-82
2022/05/23 15:32:43;;;;;;;0.10;0.10;;;;;;;;;;5112325;28;20086;-82
2022/05/23 15:35:10;;;;;;;0.10;0.10;;;;;;;;;;5125072;28;20032;-81
2022/05/23 15:37:36;;;;;;;0.10;0.10;;;;;;;;;;5120116;28;20077;-82
2022/05/23 15:40:04;;;;;;;0.10;0.10;;;;;;;;;;5116852;28;20032;-82
2022/05/23 15:42:30;;;;;;;0.10;0.10;;;;;;;;;;5094103;28;20533;-80
2022/05/23 15:44:57;;;;;;;0.10;0.10;;;;;;;;;;5111520;28;20047;-82
2022/05/23 15:47:24;;;;;;;0.08;0.08;;;;;;;;;;5114332;27;20042;-81
2022/05/23 15:49:50;;;;;;;0.10;0.10;;;;;;;;;;5123299;27;20023;-79
2022/05/23 15:52:17;;;;;;;0.10;0.10;;;;;;;;;;5118722;27;20034;-80
2022/05/23 15:54:43;;;;;;;0.10;0.10;;;;;;;;;;5130698;27;20023;-80
2022/05/23 15:57:10;;;;;;;0.10;0.10;;;;;;;;;;5120277;27;20478;-80
2022/05/23 15:59:37;;;;;;;0.10;0.10;;;;;;;;;;5124140;27;20150;-82
2022/05/23 16:02:03;;;;;;;0.10;0.10;;;;;;;;;;5127848;27;20027;-78
2022/05/23 16:04:30;;;;;;;0.10;0.10;;;;;;;;;;5116877;27;20027;-80
2022/05/23 16:06:56;;;;;;;0.10;0.10;;;;;;;;;;5134560;27;20027;-83